Waynesville, North Carolina
Current Conditions -  °F | °C
As of 4:54 AM on Saturday 20 Dec 2014 (Local Time) from KAVL Reporting Station
Light Rain Light Rain  
Wind Chill: 40°   Ceiling: 3200
Heat Index: 40°   Visibility: 10mi
Dew Point: 29°   Wind: 0mph
Humidity: 65%   Direction: NA
Pressure: 30.15"   Gusts: NA
Location:  35.48°N, 83.01°W
Report Text: KAVL 200954Z AUTO 00000KT 10SM -RA OVC032 04/M02 A3015 RMK AO2 RAB00E24B46 SLP210 P0000 T00441017
Loading
Personal Weather Stations






























Interactive Weather Map New forecast layout! Learn more

10-Day Weather Forecast

Advertisements
Track Severe Weather on mobile